Time;durP1;ratioP1;P1;durP2;ratioP2;P2;SDS_P1;SDS_P2;PMS_P1;PMS_P2;Temp;Humidity;BMP_temperature;BMP_pressure;BME280_temperature;BME280_humidity;BME280_pressure;Samples;Min_cycle;Max_cycle;Signal;HPM_P1;HPM_P2
2021/07/03 00:00:07;;;;;;;8.85;2.03;;;24.70;67.50;24.10;99459.00;;;;342705;28;83313;-86
2021/07/03 00:00:18;;;;;;;2.63;1.90;;;24.60;67.60;24.20;99460.00;;;;340620;28;94896;-86
2021/07/03 00:00:30;;;;;;;3.05;1.80;;;24.60;67.60;24.10;99470.00;;;;341220;28;83461;-86
2021/07/03 00:00:42;;;;;;;3.78;1.95;;;24.60;68.30;24.00;99462.00;;;;342002;28;96387;-86
2021/07/03 00:00:54;;;;;;;4.50;2.17;;;24.60;67.50;24.00;99463.00;;;;342916;28;82475;-86
2021/07/03 00:01:06;;;;;;;3.63;2.10;;;24.50;67.60;24.00;99460.00;;;;343072;28;94618;-86
2021/07/03 00:01:18;;;;;;;4.15;2.10;;;24.50;67.50;24.00;99465.00;;;;344251;28;83753;-86
2021/07/03 00:01:29;;;;;;;4.80;2.33;;;24.50;67.80;24.10;99466.00;;;;342183;28;93909;-86
2021/07/03 00:01:41;;;;;;;5.45;2.42;;;24.50;67.70;24.10;99458.00;;;;343908;28;83309;-86
2021/07/03 00:01:54;;;;;;;5.57;2.22;;;24.50;67.90;24.10;99458.00;;;;342021;28;93546;-86
2021/07/03 00:02:06;;;;;;;4.22;1.90;;;24.40;67.80;23.90;99458.00;;;;345004;28;84097;-85
2021/07/03 00:02:17;;;;;;;3.50;2.08;;;24.40;67.80;23.70;99463.00;;;;344880;28;94267;-85
2021/07/03 00:02:29;;;;;;;3.78;2.20;;;24.40;67.80;23.90;99465.00;;;;342328;28;82275;-86
2021/07/03 00:02:41;;;;;;;4.97;2.13;;;24.30;67.70;23.80;99460.00;;;;342928;28;94938;-85
2021/07/03 00:02:53;;;;;;;5.38;2.00;;;24.30;67.90;23.70;99460.00;;;;342898;28;82446;-86
2021/07/03 00:03:05;;;;;;;4.75;2.13;;;24.30;68.00;23.80;99463.00;;;;344617;28;94685;-86
2021/07/03 00:03:17;;;;;;;3.45;2.47;;;24.20;68.20;23.90;99465.00;;;;345510;28;84238;-86
2021/07/03 00:03:29;;;;;;;2.53;2.30;;;24.20;68.10;24.00;99461.00;;;;342144;28;94222;-86
2021/07/03 00:03:41;;;;;;;2.60;2.20;;;24.20;68.00;24.00;99466.00;;;;341260;28;83163;-86
2021/07/03 00:03:53;;;;;;;2.58;2.05;;;24.20;68.10;23.70;99465.00;;;;342194;28;95219;-86
2021/07/03 00:04:04;;;;;;;4.30;2.30;;;24.20;68.50;23.70;99464.00;;;;342706;28;83484;-86
2021/07/03 00:04:16;;;;;;;4.80;2.30;;;24.20;68.50;23.80;99468.00;;;;340847;28;94652;-86
2021/07/03 00:04:28;;;;;;;5.72;2.47;;;24.20;68.40;23.90;99465.00;;;;343921;28;83359;-85
2021/07/03 00:04:41;;;;;;;4.47;2.30;;;24.10;68.40;24.00;99466.00;;;;343569;28;94580;-86
2021/07/03 00:04:53;;;;;;;4.25;2.47;;;24.10;68.30;24.00;99459.00;;;;344215;28;83339;-86
2021/07/03 00:05:06;;;;;;;3.47;2.30;;;24.10;68.10;24.00;99462.00;;;;344118;28;93428;-86
2021/07/03 00:05:18;;;;;;;9.40;2.33;;;24.20;68.30;24.10;99459.00;;;;342937;28;82529;-86
2021/07/03 00:05:29;;;;;;;9.32;2.22;;;24.20;68.30;23.90;99455.00;;;;340069;28;93830;-86
2021/07/03 00:05:41;;;;;;;8.98;2.35;;;24.20;68.70;23.90;99463.00;;;;342178;28;83515;-86
2021/07/03 00:05:53;;;;;;;7.75;2.35;;;24.10;68.90;23.90;99461.00;;;;339489;28;94479;-86
2021/07/03 00:06:05;;;;;;;7.65;2.60;;;24.10;68.70;23.70;99465.00;;;;342225;28;82509;-86
2021/07/03 00:06:16;;;;;;;7.20;2.63;;;24.10;68.80;23.60;99464.00;;;;342149;28;94458;-85
2021/07/03 00:06:28;;;;;;;3.88;2.38;;;24.10;68.90;23.80;99469.00;;;;343838;28;82321;-86
2021/07/03 00:06:40;;;;;;;4.28;2.95;;;24.00;68.60;23.90;99465.00;;;;341969;28;96431;-86
2021/07/03 00:06:52;;;;;;;4.38;2.83;;;24.00;68.70;24.00;99463.00;;;;342928;28;82300;-86
2021/07/03 00:07:04;;;;;;;3.55;2.13;;;24.10;68.70;23.90;99460.00;;;;340377;28;94719;-86
2021/07/03 00:07:15;;;;;;;3.17;1.95;;;24.10;68.80;23.80;99464.00;;;;341445;28;83414;-86
2021/07/03 00:07:27;;;;;;;3.05;1.98;;;24.10;68.90;23.70;99467.00;;;;340504;28;93478;-86
2021/07/03 00:07:39;;;;;;;4.22;2.47;;;24.10;69.50;23.90;99461.00;;;;341556;28;83360;-86
2021/07/03 00:07:51;;;;;;;4.03;2.58;;;24.10;69.30;23.80;99459.00;;;;340767;28;94598;-86
2021/07/03 00:08:03;;;;;;;4.10;2.63;;;24.10;69.40;23.70;99465.00;;;;342824;28;83137;-86
2021/07/03 00:08:15;;;;;;;4.18;2.25;;;24.10;69.30;23.60;99457.00;;;;342166;28;94417;-86
2021/07/03 00:08:30;;;;;;;4.18;2.28;;;24.00;69.10;23.50;99462.00;;;;342039;28;83802;-86
2021/07/03 00:08:42;;;;;;;3.55;2.20;;;24.00;69.20;23.40;99460.00;;;;342849;28;94393;-86
2021/07/03 00:08:53;;;;;;;3.08;2.20;;;24.00;69.30;23.60;99463.00;;;;341539;28;83166;-86
2021/07/03 00:09:05;;;;;;;3.17;2.08;;;23.90;69.20;23.60;99464.00;;;;341478;28;94584;-86
2021/07/03 00:09:17;;;;;;;3.75;2.03;;;23.90;69.20;23.40;99464.00;;;;344292;28;82665;-85
2021/07/03 00:09:29;;;;;;;3.97;2.10;;;23.90;69.50;23.40;99467.00;;;;342185;28;91647;-86
2021/07/03 00:09:40;;;;;;;2.80;2.00;;;23.90;69.40;23.50;99463.00;;;;342983;28;82166;-85
2021/07/03 00:09:52;;;;;;;3.28;2.08;;;23.90;69.50;23.60;99463.00;;;;342202;28;94695;-85
2021/07/03 00:10:05;;;;;;;3.30;2.08;;;23.90;69.30;23.70;99467.00;;;;342833;28;83314;-86
2021/07/03 00:10:17;;;;;;;2.90;1.98;;;23.90;69.40;23.70;99467.00;;;;343511;28;94612;-85
2021/07/03 00:10:29;;;;;;;2.90;1.85;;;23.90;69.50;23.80;99465.00;;;;342975;28;83389;-86
2021/07/03 00:10:40;;;;;;;3.15;1.90;;;23.90;69.40;23.80;99459.00;;;;340965;28;94556;-86
2021/07/03 00:10:53;;;;;;;3.78;2.03;;;23.90;69.40;23.60;99468.00;;;;344366;28;83390;-87
2021/07/03 00:11:06;;;;;;;3.67;2.20;;;23.90;69.50;23.70;99467.00;;;;343062;28;94509;-86
2021/07/03 00:11:18;;;;;;;3.80;2.50;;;23.90;69.40;23.60;99464.00;;;;341404;28;83260;-86
2021/07/03 00:11:29;;;;;;;4.00;2.42;;;23.90;69.70;23.60;99463.00;;;;340275;28;93814;-86
2021/07/03 00:11:42;;;;;;;4.63;2.47;;;23.90;69.70;23.70;99466.00;;;;343240;28;82354;-87
2021/07/03 00:11:54;;;;;;;4.35;2.40;;;23.90;69.60;23.80;99462.00;;;;341548;28;94512;-86
2021/07/03 00:12:07;;;;;;;3.38;2.22;;;23.90;69.60;23.80;99462.00;;;;342020;28;82296;-86
2021/07/03 00:12:18;;;;;;;2.70;1.80;;;23.90;69.60;23.90;99455.00;;;;343543;28;93531;-86
2021/07/03 00:12:30;;;;;;;2.40;1.60;;;23.90;69.40;23.70;99460.00;;;;344301;28;83344;-86
2021/07/03 00:12:42;;;;;;;6.18;1.75;;;23.90;69.50;23.60;99452.00;;;;344618;28;93783;-87
2021/07/03 00:12:55;;;;;;;6.10;1.92;;;23.90;69.40;23.70;99453.00;;;;342874;28;83260;-86
2021/07/03 00:13:07;;;;;;;3.00;2.30;;;23.90;69.30;23.80;99452.00;;;;342348;28;94892;-86
2021/07/03 00:13:18;;;;;;;2.88;2.17;;;23.90;69.20;23.90;99453.00;;;;344618;28;82467;-86
2021/07/03 00:13:30;;;;;;;2.60;2.00;;;23.90;69.30;23.90;99451.00;;;;342594;28;94264;-86
2021/07/03 00:13:42;;;;;;;2.65;2.00;;;23.90;69.20;23.80;99452.00;;;;343231;28;84034;-86
2021/07/03 00:13:54;;;;;;;2.83;2.10;;;24.00;69.30;23.70;99455.00;;;;343879;28;94406;-86
2021/07/03 00:14:06;;;;;;;2.63;1.98;;;24.00;69.40;23.80;99446.00;;;;344364;28;83381;-87
2021/07/03 00:14:18;;;;;;;2.28;1.80;;;23.90;69.10;23.80;99453.00;;;;341030;28;94593;-85
2021/07/03 00:14:30;;;;;;;3.00;2.17;;;24.00;69.30;23.80;99454.00;;;;343785;28;83327;-86
2021/07/03 00:14:41;;;;;;;3.88;2.35;;;24.00;69.50;23.80;99450.00;;;;343375;28;94283;-86
2021/07/03 00:14:53;;;;;;;3.67;2.03;;;24.00;69.10;23.70;99456.00;;;;344550;28;83344;-87
2021/07/03 00:15:09;;;;;;;4.28;1.98;;;24.00;69.50;23.60;99442.00;;;;344952;28;93476;-86
2021/07/03 00:15:21;;;;;;;3.45;1.67;;;24.00;69.90;23.60;99443.00;;;;344583;28;83317;-86
2021/07/03 00:15:33;;;;;;;2.28;1.70;;;24.00;69.80;23.60;99446.00;;;;340999;28;92994;-86
2021/07/03 00:15:45;;;;;;;2.38;1.77;;;24.00;69.70;23.60;99444.00;;;;342830;28;84603;-86
2021/07/03 00:15:57;;;;;;;3.40;1.98;;;24.00;69.70;23.60;99443.00;;;;342562;28;94746;-86
2021/07/03 00:16:09;;;;;;;3.58;2.00;;;24.00;69.60;23.60;99448.00;;;;344336;28;84076;-86
2021/07/03 00:16:21;;;;;;;4.10;2.30;;;23.90;69.50;23.70;99446.00;;;;342404;28;94803;-85
2021/07/03 00:16:33;;;;;;;4.85;2.15;;;24.00;69.30;23.70;99449.00;;;;343233;28;83450;-86
2021/07/03 00:16:45;;;;;;;4.38;1.85;;;24.00;69.50;23.70;99449.00;;;;341057;28;94886;-86
2021/07/03 00:16:57;;;;;;;3.00;1.70;;;24.00;69.90;23.70;99444.00;;;;340752;28;83289;-85
2021/07/03 00:17:09;;;;;;;3.78;1.77;;;23.90;69.80;23.70;99438.00;;;;339815;28;93636;-86
2021/07/03 00:17:21;;;;;;;3.78;1.73;;;24.00;69.70;23.70;99446.00;;;;343572;28;83180;-86
2021/07/03 00:17:33;;;;;;;3.28;1.88;;;23.90;69.60;23.80;99449.00;;;;341539;28;96002;-86
2021/07/03 00:17:45;;;;;;;2.90;2.20;;;24.00;69.50;23.90;99446.00;;;;343408;28;83474;-86
2021/07/03 00:17:59;;;;;;;2.65;1.88;;;24.00;69.50;23.90;99447.00;;;;342895;28;94963;-87
2021/07/03 00:18:13;;;;;;;2.38;1.63;;;24.00;69.70;23.90;99439.00;;;;343118;28;82235;-85
2021/07/03 00:18:25;;;;;;;2.70;2.15;;;24.00;69.50;24.00;99443.00;;;;343090;28;93700;-86
2021/07/03 00:18:37;;;;;;;3.67;2.20;;;24.00;69.40;23.90;99440.00;;;;344019;28;82635;-86
2021/07/03 00:18:48;;;;;;;5.55;1.98;;;24.00;69.40;23.90;99430.00;;;;342284;28;94333;-86
2021/07/03 00:19:00;;;;;;;6.40;1.90;;;24.00;69.40;23.80;99442.00;;;;343133;28;83293;-86
2021/07/03 00:19:12;;;;;;;6.38;2.20;;;24.00;69.40;23.70;99441.00;;;;340987;28;94327;-87
2021/07/03 00:19:24;;;;;;;3.47;2.20;;;24.00;70.30;23.70;99437.00;;;;341678;28;82252;-86
2021/07/03 00:19:36;;;;;;;3.30;2.03;;;24.00;70.20;23.80;99436.00;;;;341193;28;94160;-86
2021/07/03 00:19:47;;;;;;;4.15;1.90;;;24.00;69.40;24.00;99435.00;;;;341726;28;83319;-86
2021/07/03 00:19:59;;;;;;;4.03;1.90;;;24.00;69.50;24.00;99432.00;;;;339773;28;94554;-86
2021/07/03 00:20:12;;;;;;;3.72;2.00;;;24.00;69.30;24.00;99435.00;;;;340364;28;83162;-85
2021/07/03 00:20:24;;;;;;;2.78;2.08;;;24.10;69.30;23.90;99434.00;;;;341273;28;93592;-86
2021/07/03 00:20:36;;;;;;;3.05;2.00;;;24.00;69.40;23.80;99440.00;;;;341442;28;82529;-87
2021/07/03 00:20:48;;;;;;;3.13;2.08;;;24.00;69.30;23.80;99435.00;;;;342900;28;94424;-86
2021/07/03 00:21:00;;;;;;;3.33;2.38;;;24.00;69.30;23.70;99438.00;;;;342008;28;82172;-85
2021/07/03 00:21:12;;;;;;;2.60;2.10;;;24.00;69.30;23.80;99436.00;;;;342422;28;93460;-86
2021/07/03 00:21:24;;;;;;;2.55;2.10;;;24.00;69.20;23.80;99435.00;;;;343049;28;82636;-85
2021/07/03 00:21:37;;;;;;;2.22;1.90;;;24.00;69.30;23.90;99439.00;;;;342461;28;94045;-86
2021/07/03 00:21:49;;;;;;;2.58;2.03;;;24.00;69.10;23.90;99432.00;;;;343086;28;82385;-86
2021/07/03 00:22:00;;;;;;;2.70;2.00;;;24.00;69.10;23.90;99437.00;;;;342118;28;94559;-86
2021/07/03 00:22:12;;;;;;;2.22;1.63;;;24.00;69.10;23.90;99438.00;;;;344570;28;83715;-86
2021/07/03 00:22:24;;;;;;;2.40;1.63;;;24.10;69.20;23.90;99435.00;;;;343533;28;94626;-86
2021/07/03 00:22:36;;;;;;;2.53;1.85;;;24.00;69.40;23.80;99432.00;;;;345949;28;82367;-85
2021/07/03 00:22:49;;;;;;;4.55;2.10;;;24.10;69.70;23.80;99436.00;;;;342491;28;93623;-86
2021/07/03 00:23:00;;;;;;;6.00;2.13;;;24.10;69.70;23.90;99438.00;;;;344558;28;82287;-86
2021/07/03 00:23:12;;;;;;;6.78;2.28;;;24.10;69.50;24.00;99438.00;;;;345272;28;94565;-86
2021/07/03 00:23:24;;;;;;;4.00;2.00;;;24.10;69.60;24.00;99437.00;;;;344555;28;82610;-86
2021/07/03 00:23:36;;;;;;;7.05;2.15;;;24.10;69.50;24.00;99435.00;;;;342587;28;94039;-86
2021/07/03 00:23:47;;;;;;;8.10;2.28;;;24.10;69.40;24.00;99436.00;;;;342433;28;83290;-86
2021/07/03 00:23:59;;;;;;;8.10;2.50;;;24.10;69.40;24.00;99427.00;;;;342485;28;97367;-86
2021/07/03 00:24:11;;;;;;;4.38;2.35;;;24.10;69.60;24.00;99436.00;;;;341171;28;83051;-86
2021/07/03 00:24:23;;;;;;;4.05;2.15;;;24.10;69.50;24.00;99429.00;;;;341052;28;94500;-86
2021/07/03 00:24:35;;;;;;;3.70;2.17;;;24.20;69.50;24.10;99433.00;;;;340235;28;82275;-86
2021/07/03 00:24:46;;;;;;;3.55;2.47;;;24.10;69.40;24.10;99432.00;;;;340949;28;93417;-85
2021/07/03 00:24:58;;;;;;;3.80;2.20;;;24.20;69.50;24.10;99431.00;;;;341495;28;83334;-86
2021/07/03 00:25:10;;;;;;;4.30;2.30;;;24.20;69.40;24.10;99428.00;;;;339387;28;95103;-86
2021/07/03 00:25:22;;;;;;;3.85;2.10;;;24.20;69.40;24.10;99431.00;;;;342693;28;83341;-86
2021/07/03 00:25:35;;;;;;;3.20;2.10;;;24.10;69.30;24.20;99430.00;;;;343571;28;94173;-86
2021/07/03 00:25:47;;;;;;;2.85;2.13;;;24.20;69.40;24.20;99432.00;;;;342767;28;83256;-86
2021/07/03 00:25:59;;;;;;;3.95;2.15;;;24.20;69.30;24.20;99430.00;;;;342159;28;94874;-86
2021/07/03 00:26:10;;;;;;;3.90;1.98;;;24.20;69.20;24.10;99429.00;;;;342807;28;83359;-86
2021/07/03 00:26:22;;;;;;;4.60;1.88;;;24.20;69.20;24.20;99429.00;;;;340790;28;94388;-87
2021/07/03 00:26:34;;;;;;;5.68;2.00;;;24.20;69.20;24.20;99432.00;;;;341262;28;83862;-86
2021/07/03 00:26:46;;;;;;;5.60;1.90;;;24.20;69.10;24.10;99428.00;;;;341654;28;94440;-86
2021/07/03 00:26:57;;;;;;;3.05;2.03;;;24.20;69.10;24.10;99428.00;;;;342876;28;83208;-86
2021/07/03 00:27:09;;;;;;;2.90;2.08;;;24.20;69.10;24.10;99427.00;;;;342042;28;93477;-86
2021/07/03 00:27:21;;;;;;;2.65;1.80;;;24.20;69.20;24.10;99433.00;;;;344098;28;83843;-86
2021/07/03 00:27:33;;;;;;;2.72;1.90;;;24.20;69.10;24.20;99429.00;;;;342159;28;92678;-86
2021/07/03 00:27:44;;;;;;;3.45;2.10;;;24.20;69.20;24.20;99425.00;;;;343387;28;83241;-86
2021/07/03 00:27:56;;;;;;;4.63;2.13;;;24.20;69.20;24.20;99435.00;;;;341967;28;94815;-86
2021/07/03 00:28:08;;;;;;;4.82;2.30;;;24.20;69.10;24.20;99432.00;;;;344128;28;83504;-85
2021/07/03 00:28:20;;;;;;;4.78;2.40;;;24.20;69.10;24.10;99430.00;;;;341878;28;98104;-86
2021/07/03 00:28:31;;;;;;;4.53;2.38;;;24.20;69.00;24.20;99439.00;;;;345245;28;83673;-85
2021/07/03 00:28:43;;;;;;;3.63;2.40;;;24.20;69.00;24.20;99436.00;;;;342580;28;94299;-85
2021/07/03 00:28:56;;;;;;;2.80;2.22;;;24.20;69.00;24.10;99426.00;;;;342969;28;83398;-85
2021/07/03 00:29:07;;;;;;;2.63;2.08;;;24.20;69.30;24.10;99427.00;;;;342137;28;94505;-86
2021/07/03 00:29:19;;;;;;;3.03;2.13;;;24.20;69.20;24.10;99433.00;;;;343917;28;83358;-86
2021/07/03 00:29:31;;;;;;;4.25;2.28;;;24.20;69.10;24.10;99426.00;;;;341089;28;93908;-85
2021/07/03 00:29:43;;;;;;;4.47;2.17;;;24.20;69.10;24.00;99426.00;;;;343275;28;83528;-86
2021/07/03 00:29:55;;;;;;;3.97;2.00;;;24.20;69.30;24.00;99430.00;;;;340527;28;93215;-86
2021/07/03 00:30:08;;;;;;;3.20;1.92;;;24.20;69.40;24.10;99422.00;;;;341394;28;83255;-86
2021/07/03 00:30:20;;;;;;;3.28;2.00;;;24.20;69.20;24.10;99434.00;;;;340388;28;94975;-85
2021/07/03 00:30:32;;;;;;;2.97;2.15;;;24.20;69.30;24.00;99424.00;;;;342794;28;83286;-86
2021/07/03 00:30:44;;;;;;;2.92;2.10;;;24.20;69.40;24.00;99427.00;;;;341990;28;94905;-85
2021/07/03 00:30:56;;;;;;;3.22;2.13;;;24.20;69.40;24.00;99428.00;;;;342820;28;83703;-85
2021/07/03 00:31:08;;;;;;;3.53;2.15;;;24.20;69.40;24.10;99422.00;;;;342826;28;94442;-85
2021/07/03 00:31:20;;;;;;;4.03;2.22;;;24.20;69.40;24.00;99419.00;;;;343938;28;83433;-85
2021/07/03 00:31:32;;;;;;;3.95;2.15;;;24.20;69.40;24.10;99427.00;;;;342181;28;94192;-86
2021/07/03 00:31:44;;;;;;;3.58;2.08;;;24.20;69.50;24.10;99426.00;;;;343258;28;83391;-86
2021/07/03 00:31:56;;;;;;;2.92;2.10;;;24.20;69.40;24.00;99424.00;;;;340875;28;94628;-86
2021/07/03 00:32:08;;;;;;;3.20;2.20;;;24.20;70.10;24.00;99423.00;;;;342339;28;82621;-86
2021/07/03 00:32:20;;;;;;;3.03;2.17;;;24.20;69.50;24.00;99421.00;;;;344814;28;95266;-85
2021/07/03 00:32:32;;;;;;;2.95;2.20;;;24.20;69.70;24.00;99428.00;;;;341982;28;83650;-86
2021/07/03 00:32:44;;;;;;;2.70;1.92;;;24.20;69.60;24.00;99424.00;;;;341112;28;94987;-86
2021/07/03 00:32:57;;;;;;;2.47;1.77;;;24.20;69.50;24.00;99424.00;;;;344235;28;83447;-85
2021/07/03 00:33:09;;;;;;;3.25;2.05;;;24.20;69.50;24.00;99425.00;;;;340245;28;97277;-88
2021/07/03 00:33:21;;;;;;;6.38;2.40;;;24.20;69.50;24.00;99424.00;;;;341780;28;82356;-86
2021/07/03 00:33:33;;;;;;;5.63;2.25;;;24.20;69.40;24.10;99422.00;;;;343370;28;93845;-86
2021/07/03 00:33:45;;;;;;;5.40;2.20;;;24.20;70.00;24.10;99426.00;;;;344083;28;83644;-85
2021/07/03 00:33:57;;;;;;;2.90;2.20;;;24.20;69.40;24.10;99421.00;;;;344931;28;94971;-85
2021/07/03 00:34:09;;;;;;;4.20;2.13;;;24.20;69.40;24.00;99428.00;;;;345437;28;83369;-85
2021/07/03 00:34:21;;;;;;;4.07;2.00;;;24.30;69.60;24.00;99420.00;;;;343381;28;96824;-85
2021/07/03 00:34:32;;;;;;;3.70;1.92;;;24.20;69.70;24.10;99421.00;;;;344183;28;83340;-85
2021/07/03 00:34:44;;;;;;;2.92;2.13;;;24.20;69.40;24.10;99426.00;;;;343283;28;94618;-86
2021/07/03 00:34:56;;;;;;;3.00;2.00;;;24.30;69.40;24.10;99423.00;;;;342862;28;83268;-86
2021/07/03 00:35:08;;;;;;;3.13;2.03;;;24.20;69.40;24.10;99424.00;;;;343412;28;94615;-86
2021/07/03 00:35:20;;;;;;;3.30;2.20;;;24.30;69.40;24.20;99424.00;;;;342711;28;83243;-86
2021/07/03 00:35:32;;;;;;;3.33;2.28;;;24.30;69.40;24.20;99421.00;;;;341135;28;93726;-85
2021/07/03 00:35:44;;;;;;;3.35;2.45;;;24.30;69.40;24.20;99423.00;;;;341744;28;83187;-85
2021/07/03 00:35:56;;;;;;;3.63;2.47;;;24.30;69.40;24.20;99415.00;;;;342156;28;94326;-85
2021/07/03 00:36:08;;;;;;;3.70;2.55;;;24.30;69.30;24.20;99416.00;;;;345218;28;83354;-85
2021/07/03 00:36:20;;;;;;;3.90;2.33;;;24.30;69.30;24.20;99416.00;;;;343441;28;94326;-85
2021/07/03 00:36:31;;;;;;;3.30;2.30;;;24.30;69.30;24.20;99419.00;;;;345597;28;83196;-85
2021/07/03 00:36:43;;;;;;;3.08;2.30;;;24.30;69.30;24.20;99417.00;;;;341973;28;94721;-85
2021/07/03 00:36:55;;;;;;;3.22;2.15;;;24.30;69.30;24.20;99406.00;;;;342818;28;83281;-85
2021/07/03 00:37:09;;;;;;;3.55;1.92;;;24.30;69.30;24.30;99424.00;;;;340714;28;93776;-85
2021/07/03 00:37:21;;;;;;;3.40;2.08;;;24.40;69.40;24.30;99411.00;;;;341598;28;83357;-85
2021/07/03 00:37:33;;;;;;;3.60;2.28;;;24.40;69.40;24.20;99414.00;;;;343562;28;92503;-85
2021/07/03 00:37:45;;;;;;;3.95;2.67;;;24.40;70.00;24.20;99414.00;;;;342078;28;82453;-85
2021/07/03 00:37:56;;;;;;;4.15;2.60;;;24.40;69.30;24.30;99412.00;;;;342167;28;94182;-85
2021/07/03 00:38:09;;;;;;;4.20;2.58;;;24.40;69.30;24.20;99410.00;;;;342833;28;83166;-85
2021/07/03 00:38:20;;;;;;;2.95;2.08;;;24.40;69.30;24.30;99412.00;;;;343435;28;94316;-86
2021/07/03 00:38:32;;;;;;;3.15;2.00;;;24.40;69.30;24.20;99418.00;;;;341714;28;84104;-85
2021/07/03 00:38:44;;;;;;;3.08;2.05;;;24.40;69.30;24.20;99420.00;;;;342451;28;94692;-85
2021/07/03 00:38:56;;;;;;;3.05;2.17;;;24.40;69.20;24.10;99413.00;;;;344217;28;83492;-85
2021/07/03 00:39:08;;;;;;;3.08;1.98;;;24.40;69.30;24.10;99417.00;;;;341772;28;94972;-85
2021/07/03 00:39:20;;;;;;;3.05;1.80;;;24.40;69.30;24.20;99419.00;;;;341538;28;83285;-85
2021/07/03 00:39:32;;;;;;;3.75;2.10;;;24.40;69.30;24.20;99412.00;;;;340912;28;93724;-86
2021/07/03 00:39:43;;;;;;;3.28;2.10;;;24.40;69.20;24.10;99419.00;;;;343591;28;83155;-86
2021/07/03 00:39:55;;;;;;;2.67;1.90;;;24.40;69.40;24.10;99410.00;;;;343541;28;92880;-85
2021/07/03 00:40:08;;;;;;;2.13;1.88;;;24.40;69.50;24.20;99418.00;;;;344168;28;82499;-85
2021/07/03 00:40:20;;;;;;;2.47;1.95;;;24.40;69.40;24.20;99412.00;;;;343277;28;98354;-85
2021/07/03 00:40:32;;;;;;;3.45;2.45;;;24.40;69.30;24.30;99414.00;;;;342785;28;83808;-85
2021/07/03 00:40:44;;;;;;;4.28;2.53;;;24.40;69.30;24.30;99420.00;;;;341736;28;94437;-85
2021/07/03 00:40:55;;;;;;;3.72;2.28;;;24.40;69.30;24.30;99423.00;;;;344163;28;83452;-86
2021/07/03 00:41:07;;;;;;;3.67;2.17;;;24.40;69.30;24.30;99418.00;;;;341077;28;94522;-85
2021/07/03 00:41:19;;;;;;;4.25;2.28;;;24.40;69.40;24.30;99420.00;;;;342578;28;82391;-86
2021/07/03 00:41:31;;;;;;;3.53;2.05;;;24.40;69.40;24.40;99421.00;;;;338975;28;94353;-86
2021/07/03 00:41:42;;;;;;;2.47;1.90;;;24.50;69.50;24.40;99420.00;;;;340790;28;83502;-85
2021/07/03 00:41:54;;;;;;;2.53;1.92;;;24.50;69.50;24.40;99417.00;;;;340822;28;94925;-85
2021/07/03 00:42:06;;;;;;;2.78;2.00;;;24.50;69.40;24.40;99419.00;;;;342675;28;83482;-85
2021/07/03 00:42:18;;;;;;;2.78;2.17;;;24.50;69.20;24.30;99418.00;;;;342072;28;94875;-85
2021/07/03 00:42:30;;;;;;;2.42;1.83;;;24.50;69.10;24.40;99420.00;;;;342688;28;83404;-85
2021/07/03 00:42:42;;;;;;;2.42;1.80;;;24.50;69.10;24.30;99423.00;;;;342040;28;94517;-86
2021/07/03 00:42:55;;;;;;;4.00;2.20;;;24.50;69.00;24.30;99426.00;;;;343994;28;82578;-85
2021/07/03 00:43:07;;;;;;;5.07;2.35;;;24.50;69.10;24.30;99421.00;;;;343468;28;93334;-86
2021/07/03 00:43:18;;;;;;;3.90;2.08;;;24.50;69.00;24.30;99420.00;;;;344149;28;82325;-86
2021/07/03 00:43:30;;;;;;;3.70;2.17;;;24.50;69.00;24.40;99417.00;;;;342168;28;94152;-85
2021/07/03 00:43:42;;;;;;;2.72;2.30;;;24.50;69.00;24.40;99421.00;;;;340088;28;83718;-86
2021/07/03 00:43:53;;;;;;;2.97;2.22;;;24.50;69.10;24.40;99424.00;;;;340792;28;94631;-86
2021/07/03 00:44:05;;;;;;;3.17;2.22;;;24.50;69.10;24.40;99420.00;;;;341485;28;82633;-86
2021/07/03 00:44:28;;;;;;;3.40;1.90;;;24.50;69.20;24.50;99425.00;;;;340685;28;94428;-85
2021/07/03 00:44:40;;;;;;;3.75;1.80;;;24.50;69.20;24.40;99421.00;;;;342018;28;83877;-84
2021/07/03 00:44:52;;;;;;;3.10;1.88;;;24.50;69.10;24.40;99425.00;;;;340808;28;94338;-85
2021/07/03 00:45:05;;;;;;;3.20;1.98;;;24.50;69.10;24.40;99420.00;;;;341969;28;83283;-85
2021/07/03 00:45:17;;;;;;;2.88;1.92;;;24.50;69.10;24.40;99424.00;;;;343379;28;94014;-86
2021/07/03 00:45:30;;;;;;;2.58;1.98;;;24.50;69.70;24.30;99424.00;;;;344169;28;83238;-85
2021/07/03 00:45:42;;;;;;;2.90;2.00;;;24.50;69.20;24.30;99424.00;;;;340613;28;93809;-85
2021/07/03 00:45:54;;;;;;;2.97;2.00;;;24.50;69.00;24.30;99426.00;;;;343684;28;82340;-86
2021/07/03 00:46:05;;;;;;;3.05;2.13;;;24.50;69.30;24.30;99423.00;;;;342827;28;94618;-85
2021/07/03 00:46:17;;;;;;;2.80;2.13;;;24.50;69.10;24.20;99425.00;;;;341386;28;83274;-85
2021/07/03 00:46:29;;;;;;;2.30;2.00;;;24.50;69.10;24.20;99433.00;;;;340649;28;95200;-86
2021/07/03 00:46:41;;;;;;;2.50;1.80;;;24.50;69.40;24.20;99429.00;;;;340994;28;83388;-85
2021/07/03 00:46:53;;;;;;;3.60;2.00;;;24.50;69.40;24.10;99429.00;;;;342172;28;94622;-85
2021/07/03 00:47:06;;;;;;;3.83;2.00;;;24.50;69.30;24.20;99425.00;;;;343921;28;82645;-85
2021/07/03 00:47:18;;;;;;;3.15;1.98;;;24.50;69.20;24.10;99426.00;;;;342475;28;94690;-85
2021/07/03 00:47:30;;;;;;;2.58;1.95;;;24.50;69.30;24.20;99429.00;;;;343362;28;83452;-86
2021/07/03 00:47:42;;;;;;;3.08;2.10;;;24.40;69.20;24.20;99429.00;;;;342865;28;92751;-86
2021/07/03 00:47:53;;;;;;;4.75;2.47;;;24.40;69.20;24.20;99426.00;;;;342697;28;82609;-86
2021/07/03 00:48:05;;;;;;;5.00;2.40;;;24.40;69.20;24.20;99431.00;;;;343332;28;94757;-86
2021/07/03 00:48:17;;;;;;;4.00;2.30;;;24.40;69.30;24.10;99427.00;;;;341409;28;83436;-85
2021/07/03 00:48:29;;;;;;;3.47;2.15;;;24.40;69.30;24.20;99433.00;;;;341442;28;94962;-85
2021/07/03 00:48:41;;;;;;;4.05;2.00;;;24.40;69.20;24.20;99423.00;;;;341450;28;83350;-85
2021/07/03 00:48:52;;;;;;;4.50;2.10;;;24.40;69.20;24.20;99426.00;;;;340793;28;94621;-85
2021/07/03 00:49:04;;;;;;;3.83;2.28;;;24.40;69.20;24.20;99422.00;;;;341331;28;83477;-86
2021/07/03 00:49:16;;;;;;;3.33;2.17;;;24.40;69.20;24.20;99427.00;;;;339938;28;94505;-86
2021/07/03 00:49:28;;;;;;;2.60;2.10;;;24.40;69.30;24.20;99425.00;;;;341422;28;82472;-86
2021/07/03 00:49:39;;;;;;;3.92;1.90;;;24.40;69.20;24.20;99431.00;;;;340702;28;94193;-85
2021/07/03 00:49:51;;;;;;;5.65;2.03;;;24.40;69.20;24.30;99424.00;;;;340104;28;83512;-86
2021/07/03 00:50:09;;;;;;;6.68;2.33;;;24.40;69.20;24.30;99429.00;;;;339762;28;94437;-85
2021/07/03 00:50:21;;;;;;;4.00;2.25;;;24.40;69.20;24.30;99427.00;;;;342756;28;83308;-86
2021/07/03 00:50:32;;;;;;;3.25;2.10;;;24.40;69.20;24.30;99423.00;;;;342539;28;94797;-86
2021/07/03 00:50:44;;;;;;;3.17;2.50;;;24.40;69.20;24.30;99424.00;;;;341723;28;83339;-85
2021/07/03 00:50:57;;;;;;;3.28;2.40;;;24.50;69.30;24.30;99427.00;;;;343109;28;93268;-85
2021/07/03 00:51:09;;;;;;;3.53;2.22;;;24.50;69.20;24.30;99422.00;;;;343267;28;83387;-85
2021/07/03 00:51:21;;;;;;;3.20;2.20;;;24.50;69.20;24.30;99423.00;;;;342096;28;94645;-85
2021/07/03 00:51:33;;;;;;;4.60;2.42;;;24.50;69.20;24.30;99421.00;;;;343071;28;83188;-86
2021/07/03 00:51:44;;;;;;;4.60;2.63;;;24.50;69.20;24.30;99428.00;;;;342756;28;94059;-85
2021/07/03 00:51:56;;;;;;;3.58;2.28;;;24.50;69.20;24.30;99427.00;;;;341517;28;83276;-85
2021/07/03 00:52:09;;;;;;;2.78;1.98;;;24.50;69.20;24.30;99424.00;;;;340746;28;94520;-85
2021/07/03 00:52:21;;;;;;;2.92;2.10;;;24.50;69.10;24.30;99424.00;;;;342696;28;83357;-86
2021/07/03 00:52:33;;;;;;;3.10;2.33;;;24.50;69.20;24.30;99421.00;;;;343460;28;93945;-86
2021/07/03 00:52:45;;;;;;;3.35;2.25;;;24.50;69.10;24.30;99428.00;;;;344116;28;83353;-86
2021/07/03 00:52:57;;;;;;;3.35;2.08;;;24.50;69.10;24.40;99428.00;;;;342127;28;94529;-85
2021/07/03 00:53:08;;;;;;;3.17;1.98;;;24.50;69.20;24.40;99421.00;;;;344168;28;82657;-85
2021/07/03 00:53:20;;;;;;;3.35;2.00;;;24.50;69.30;24.40;99428.00;;;;342045;28;94629;-86
2021/07/03 00:53:32;;;;;;;3.83;2.35;;;24.50;69.30;24.40;99423.00;;;;340521;28;83532;-85
2021/07/03 00:53:44;;;;;;;3.80;2.63;;;24.50;69.20;24.40;99425.00;;;;341038;28;93486;-85
2021/07/03 00:53:56;;;;;;;3.35;2.45;;;24.50;69.20;24.30;99425.00;;;;344261;28;83145;-85
2021/07/03 00:54:09;;;;;;;3.17;2.15;;;24.50;69.50;24.30;99430.00;;;;343622;28;95089;-85